Tranquility, New Jersey
Current Conditions -  °F | °C
As of 8:19 AM on Monday 22 Dec 2014 (Local Time) from KFWN Reporting Station
Overcast Overcast  
Wind Chill: 25°   Ceiling: 900
Heat Index: 31°   Visibility: 8mi
Dew Point: 28°   Wind: 6mph
Humidity: 89%   Direction: 30°NNE
Pressure: 30.32"   Gusts: NA
Location:  40.96°N, 74.81°W
Report Text: KFWN 221319Z AUTO 03005KT 8SM OVC009 M01/M02 A3032 RMK AO2 CIG 007V010 T10061022
Loading
Personal Weather Stations






























Interactive Weather Map New forecast layout! Learn more

10-Day Weather Forecast

Advertisements
Track Severe Weather on mobile